createdAt,value
2019-02-22T00:01:21.995Z,9.10
2019-02-22T00:03:49.809Z,9.20
2019-02-22T00:06:17.173Z,9.10
2019-02-22T00:08:45.164Z,9.00
2019-02-22T00:11:12.978Z,8.80
2019-02-22T00:13:40.518Z,8.70
2019-02-22T00:16:08.939Z,8.70
2019-02-22T00:18:36.624Z,8.70
2019-02-22T00:21:03.948Z,8.70
2019-02-22T00:23:31.609Z,8.80
2019-02-22T00:25:58.949Z,8.80
2019-02-22T00:28:26.404Z,8.90
2019-02-22T00:30:54.015Z,8.80
2019-02-22T00:33:21.759Z,8.90
2019-02-22T00:35:50.351Z,9.00
2019-02-22T00:38:17.923Z,9.00
2019-02-22T00:40:45.442Z,9.00
2019-02-22T00:43:12.804Z,9.00
2019-02-22T00:45:40.318Z,9.00
2019-02-22T00:48:07.960Z,9.00
2019-02-22T00:50:35.946Z,8.90
2019-02-22T00:53:04.009Z,8.80
2019-02-22T00:55:31.567Z,8.90
2019-02-22T00:57:59.171Z,9.00
2019-02-22T01:00:26.666Z,9.10
2019-02-22T01:02:54.500Z,9.10
2019-02-22T01:05:21.826Z,9.00
2019-02-22T01:07:49.687Z,8.90
2019-02-22T01:10:17.025Z,9.00
2019-02-22T01:12:44.840Z,8.90
2019-02-22T01:15:12.555Z,8.80
2019-02-22T01:17:40.110Z,8.70
2019-02-22T01:20:07.534Z,8.70
2019-02-22T01:22:35.142Z,8.70
2019-02-22T01:25:02.993Z,8.70
2019-02-22T01:27:32.052Z,8.70
2019-02-22T01:29:59.482Z,8.70
2019-02-22T01:32:26.964Z,8.80
2019-02-22T01:34:55.232Z,8.80
2019-02-22T01:37:22.877Z,8.80
2019-02-22T01:39:51.278Z,8.80
2019-02-22T01:42:18.935Z,8.80
2019-02-22T01:44:46.686Z,8.80
2019-02-22T01:47:14.237Z,8.80
2019-02-22T01:49:41.896Z,8.90
2019-02-22T01:52:09.620Z,8.90
2019-02-22T01:54:37.561Z,8.90
2019-02-22T01:57:05.092Z,8.90
2019-02-22T01:59:32.736Z,9.00
2019-02-22T02:02:00.194Z,9.00
2019-02-22T02:04:28.149Z,9.00
2019-02-22T02:06:56.012Z,9.00
2019-02-22T02:09:24.143Z,9.00
2019-02-22T02:11:51.705Z,8.90
2019-02-22T02:14:19.442Z,9.00
2019-02-22T02:16:46.941Z,9.00
2019-02-22T02:19:14.454Z,9.00
2019-02-22T02:21:41.886Z,9.00
2019-02-22T02:24:10.008Z,9.00
2019-02-22T02:26:37.602Z,9.00
2019-02-22T02:29:04.979Z,9.00
2019-02-22T02:31:32.299Z,9.10
2019-02-22T02:33:59.683Z,9.10
2019-02-22T02:36:26.997Z,9.20
2019-02-22T02:38:54.391Z,9.20
2019-02-22T02:41:22.084Z,9.20
2019-02-22T02:43:50.267Z,9.20
2019-02-22T02:46:18.445Z,9.20
2019-02-22T02:48:46.524Z,9.20
2019-02-22T02:51:14.023Z,9.10
2019-02-22T02:53:41.714Z,9.10
2019-02-22T02:56:09.244Z,9.20
2019-02-22T02:58:36.743Z,9.20
2019-02-22T03:01:04.183Z,9.20
2019-02-22T03:03:31.649Z,9.20
2019-02-22T03:06:21.463Z,9.20
2019-02-22T03:08:49.213Z,9.20
2019-02-22T03:11:20.832Z,9.20
2019-02-22T03:13:46.743Z,9.20
2019-02-22T03:16:14.320Z,9.10
2019-02-22T03:18:41.657Z,9.10
2019-02-22T03:21:09.189Z,9.10
2019-02-22T03:23:36.670Z,9.20
2019-02-22T03:26:04.501Z,9.00
2019-02-22T03:28:32.102Z,8.90
2019-02-22T03:30:59.583Z,9.00
2019-02-22T03:33:27.533Z,8.90
2019-02-22T03:35:55.247Z,8.80
2019-02-22T03:38:23.090Z,8.90
2019-02-22T03:40:50.771Z,8.80
2019-02-22T03:43:18.273Z,8.80
2019-02-22T03:45:45.925Z,8.80
2019-02-22T03:48:13.643Z,8.80
2019-02-22T03:50:40.995Z,8.70
2019-02-22T03:53:13.642Z,8.80
2019-02-22T03:55:41.541Z,8.70
2019-02-22T03:58:09.498Z,8.80
2019-02-22T04:00:37.145Z,8.80
2019-02-22T04:03:04.800Z,8.80
2019-02-22T04:05:32.197Z,8.80
2019-02-22T04:07:59.687Z,9.00
2019-02-22T04:10:27.146Z,8.90
2019-02-22T04:12:54.497Z,9.00
2019-02-22T04:15:22.018Z,9.00
2019-02-22T04:17:49.863Z,9.10
2019-02-22T04:20:17.391Z,9.10
2019-02-22T04:22:44.703Z,9.10
2019-02-22T04:25:12.638Z,9.00
2019-02-22T04:27:39.978Z,9.10
2019-02-22T04:30:07.733Z,9.10
2019-02-22T04:32:35.233Z,8.90
2019-02-22T04:35:03.006Z,8.90
2019-02-22T04:37:30.355Z,9.00
2019-02-22T04:39:58.444Z,8.90
2019-02-22T04:42:25.830Z,9.00
2019-02-22T04:44:53.313Z,9.00
2019-02-22T04:47:20.667Z,8.90
2019-02-22T04:49:48.176Z,9.00
2019-02-22T04:52:15.531Z,8.90
2019-02-22T04:54:42.942Z,8.90
2019-02-22T04:57:10.315Z,8.80
2019-02-22T04:59:38.121Z,8.80
2019-02-22T05:02:05.612Z,8.90
2019-02-22T05:04:32.981Z,8.90
2019-02-22T05:07:00.652Z,8.90
2019-02-22T05:09:29.449Z,9.00
2019-02-22T05:11:56.917Z,9.00
2019-02-22T05:14:24.307Z,9.00
2019-02-22T05:17:11.176Z,8.90
2019-02-22T05:19:38.571Z,8.90
2019-02-22T05:22:05.925Z,8.90
2019-02-22T05:24:33.320Z,8.90
2019-02-22T05:27:00.644Z,8.90
2019-02-22T05:29:27.990Z,8.90
2019-02-22T05:31:56.939Z,8.90
2019-02-22T05:34:24.360Z,8.80
2019-02-22T05:36:52.111Z,8.80
2019-02-22T05:39:19.705Z,8.80
2019-02-22T05:41:47.321Z,8.70
2019-02-22T05:44:14.614Z,8.70
2019-02-22T05:46:42.040Z,8.80
2019-02-22T05:49:09.875Z,8.90
2019-02-22T05:51:37.935Z,8.80
2019-02-22T05:54:05.672Z,8.80
2019-02-22T05:56:33.224Z,8.90
2019-02-22T05:59:01.217Z,8.90
2019-02-22T06:01:28.663Z,8.80
2019-02-22T06:03:56.176Z,8.90
2019-02-22T06:06:23.882Z,8.80
2019-02-22T06:08:51.327Z,8.80
2019-02-22T06:11:18.706Z,8.80
2019-02-22T06:13:46.471Z,8.70
2019-02-22T06:16:14.257Z,8.70
2019-02-22T06:18:42.140Z,8.70
2019-02-22T06:21:09.548Z,8.70
2019-02-22T06:23:37.623Z,8.70
2019-02-22T06:26:05.139Z,8.70
2019-02-22T06:28:32.579Z,8.70
2019-02-22T06:31:00.709Z,8.80
2019-02-22T06:33:28.376Z,8.70
2019-02-22T06:35:56.187Z,8.70
2019-02-22T06:38:23.551Z,8.70
2019-02-22T06:40:51.468Z,8.70
2019-02-22T06:43:19.318Z,8.60
2019-02-22T06:45:48.099Z,8.60
2019-02-22T06:48:16.088Z,8.60
2019-02-22T06:50:43.518Z,8.60
2019-02-22T06:53:11.314Z,8.60
2019-02-22T06:55:38.824Z,8.70
2019-02-22T06:58:06.205Z,8.70
2019-02-22T07:00:34.015Z,8.70
2019-02-22T07:03:01.518Z,8.80
2019-02-22T07:05:29.294Z,8.80
2019-02-22T07:07:57.073Z,8.70
2019-02-22T07:10:25.680Z,8.70
2019-02-22T07:13:05.700Z,8.70
2019-02-22T07:15:33.191Z,8.70
2019-02-22T07:18:00.777Z,8.80
2019-02-22T07:20:30.169Z,8.70
2019-02-22T07:22:58.009Z,8.70
2019-02-22T07:25:25.372Z,8.60
2019-02-22T07:27:53.409Z,8.60
2019-02-22T07:30:21.161Z,8.60
2019-02-22T07:32:48.554Z,8.70
2019-02-22T07:35:15.981Z,8.80
2019-02-22T07:37:43.861Z,8.80
2019-02-22T07:40:11.216Z,8.70
2019-02-22T07:42:38.706Z,8.80
2019-02-22T07:45:08.802Z,8.70
2019-02-22T07:47:36.684Z,8.80
2019-02-22T07:50:05.185Z,8.80
2019-02-22T07:52:32.610Z,8.80
2019-02-22T07:55:00.970Z,8.80
2019-02-22T07:57:28.567Z,8.80
2019-02-22T07:59:57.047Z,8.80
2019-02-22T08:02:24.416Z,8.80
2019-02-22T08:04:51.782Z,8.90
2019-02-22T08:07:19.475Z,9.00
2019-02-22T08:09:47.119Z,9.00
2019-02-22T08:12:16.180Z,9.00
2019-02-22T08:14:43.502Z,8.80
2019-02-22T08:17:10.834Z,8.80
2019-02-22T08:19:38.413Z,8.80
2019-02-22T08:22:05.863Z,8.80
2019-02-22T08:24:33.365Z,8.80
2019-02-22T08:27:00.769Z,8.90
2019-02-22T08:29:28.259Z,8.90
2019-02-22T08:31:55.856Z,8.90
2019-02-22T08:34:23.280Z,8.90
2019-02-22T08:36:50.822Z,8.90
2019-02-22T08:39:18.395Z,9.00
2019-02-22T08:41:46.135Z,9.00
2019-02-22T08:44:13.881Z,9.00
2019-02-22T08:46:41.653Z,9.00
2019-02-22T08:49:09.447Z,9.00
2019-02-22T08:51:37.191Z,9.00
2019-02-22T08:54:04.687Z,9.00
2019-02-22T08:56:32.538Z,9.10
2019-02-22T08:59:00.205Z,9.00
2019-02-22T09:01:27.656Z,9.10
2019-02-22T09:03:55.059Z,9.10
2019-02-22T09:06:22.805Z,9.10
2019-02-22T09:08:50.631Z,9.10
2019-02-22T09:11:18.446Z,9.20
2019-02-22T09:13:46.022Z,9.10
2019-02-22T09:16:13.498Z,9.20
2019-02-22T09:18:40.979Z,9.20
2019-02-22T09:21:08.316Z,9.20
2019-02-22T09:23:35.986Z,9.20
2019-02-22T09:26:03.429Z,9.20
2019-02-22T09:28:30.833Z,9.20
2019-02-22T09:30:58.792Z,9.20
2019-02-22T09:33:26.214Z,9.30
2019-02-22T09:35:54.102Z,9.20
2019-02-22T09:38:21.660Z,9.30
2019-02-22T09:40:49.437Z,9.30
2019-02-22T09:43:17.174Z,9.30
2019-02-22T09:45:45.261Z,9.30
2019-02-22T09:48:12.626Z,9.30
2019-02-22T09:50:40.259Z,9.40
2019-02-22T09:53:07.772Z,9.40
2019-02-22T09:55:35.577Z,9.40
2019-02-22T09:58:03.294Z,9.40
2019-02-22T10:00:31.008Z,9.40
2019-02-22T10:02:58.646Z,9.40
2019-02-22T10:05:26.000Z,9.50
2019-02-22T10:07:53.524Z,9.50
2019-02-22T10:10:21.105Z,9.50
2019-02-22T10:12:48.564Z,9.50
2019-02-22T10:15:16.101Z,9.50
2019-02-22T10:17:43.911Z,9.50
2019-02-22T10:20:11.384Z,9.50
2019-02-22T10:22:40.267Z,9.60
2019-02-22T10:25:07.701Z,9.60
2019-02-22T10:27:35.211Z,9.60
2019-02-22T10:30:03.073Z,9.70
2019-02-22T10:32:32.233Z,9.70
2019-02-22T10:34:59.696Z,9.70
2019-02-22T10:37:27.165Z,9.70
2019-02-22T10:39:54.818Z,9.70
2019-02-22T10:42:22.356Z,9.80
2019-02-22T10:44:51.383Z,9.90
2019-02-22T10:47:19.057Z,9.90
2019-02-22T10:49:46.455Z,10.00
2019-02-22T10:52:13.923Z,10.00
2019-02-22T10:54:41.408Z,10.00
2019-02-22T10:57:08.741Z,10.00
2019-02-22T10:59:36.190Z,10.10
2019-02-22T11:02:04.079Z,10.10
2019-02-22T11:04:31.877Z,10.20
2019-02-22T11:06:59.347Z,10.20
2019-02-22T11:09:26.877Z,10.30
2019-02-22T11:11:54.933Z,10.30
2019-02-22T11:14:29.169Z,10.30
2019-02-22T11:16:52.627Z,10.40
2019-02-22T11:19:20.410Z,10.40
2019-02-22T11:21:48.414Z,10.40
2019-02-22T11:24:16.269Z,10.40
2019-02-22T11:26:43.722Z,10.50
2019-02-22T11:29:11.495Z,10.50
2019-02-22T11:31:39.292Z,10.50
2019-02-22T11:34:06.822Z,10.50
2019-02-22T11:36:34.183Z,10.60
2019-02-22T11:39:01.898Z,10.60
2019-02-22T11:41:31.272Z,10.70
2019-02-22T11:43:59.198Z,10.70
2019-02-22T11:46:26.772Z,10.80
2019-02-22T11:48:54.573Z,10.80
2019-02-22T11:51:22.483Z,10.90
2019-02-22T11:53:50.027Z,10.90
2019-02-22T11:56:17.412Z,10.90
2019-02-22T11:58:44.913Z,11.00
2019-02-22T12:01:12.640Z,11.00
2019-02-22T12:03:40.613Z,11.00
2019-02-22T12:06:08.709Z,11.00
2019-02-22T12:08:36.546Z,11.10
2019-02-22T12:11:04.474Z,11.10
2019-02-22T12:13:32.386Z,11.20
2019-02-22T12:15:59.888Z,11.20
2019-02-22T12:18:28.481Z,11.20
2019-02-22T12:20:55.985Z,11.30
2019-02-22T12:23:23.619Z,11.30
2019-02-22T12:25:51.305Z,11.30
2019-02-22T12:28:18.803Z,11.40
2019-02-22T12:30:47.043Z,11.50
2019-02-22T12:33:14.475Z,11.80
2019-02-22T12:35:41.845Z,11.70
2019-02-22T12:38:09.485Z,11.60
2019-02-22T12:40:37.206Z,11.70
2019-02-22T12:43:04.721Z,11.80
2019-02-22T12:45:32.087Z,11.80
2019-02-22T12:47:59.777Z,11.70
2019-02-22T12:50:27.094Z,11.70
2019-02-22T12:52:54.596Z,11.70
2019-02-22T12:55:22.176Z,11.80
2019-02-22T12:57:49.912Z,11.80
2019-02-22T13:00:17.435Z,12.00
2019-02-22T13:02:46.543Z,12.10
2019-02-22T13:05:14.827Z,12.00
2019-02-22T13:07:42.612Z,12.00
2019-02-22T13:10:11.602Z,11.90
2019-02-22T13:12:39.147Z,12.00
2019-02-22T13:15:14.091Z,12.00
2019-02-22T13:17:38.057Z,12.10
2019-02-22T13:20:05.691Z,12.40
2019-02-22T13:22:33.074Z,12.20
2019-02-22T13:25:00.576Z,12.20
2019-02-22T13:27:28.273Z,12.20
2019-02-22T13:29:55.900Z,12.20
2019-02-22T13:32:23.428Z,12.20
2019-02-22T13:34:51.489Z,12.50
2019-02-22T13:37:18.942Z,12.40
2019-02-22T13:39:46.769Z,12.30
2019-02-22T13:42:14.376Z,12.30
2019-02-22T13:44:41.881Z,12.30
2019-02-22T13:47:09.506Z,12.40
2019-02-22T13:49:36.877Z,12.30
2019-02-22T13:52:04.223Z,12.30
2019-02-22T13:54:31.961Z,12.30
2019-02-22T13:56:59.361Z,12.30
2019-02-22T13:59:27.119Z,12.20
2019-02-22T14:01:54.514Z,12.30
2019-02-22T14:04:22.540Z,12.30
2019-02-22T14:06:50.406Z,12.30
2019-02-22T14:09:18.207Z,12.30
2019-02-22T14:11:45.632Z,12.30
2019-02-22T14:14:13.879Z,12.30
2019-02-22T14:16:41.208Z,12.40
2019-02-22T14:19:09.245Z,12.40
2019-02-22T14:21:36.942Z,12.40
2019-02-22T14:24:04.724Z,12.40
2019-02-22T14:26:32.067Z,12.40
2019-02-22T14:28:59.883Z,12.30
2019-02-22T14:31:28.331Z,12.30
2019-02-22T14:33:55.854Z,12.30
2019-02-22T14:36:23.357Z,12.40
2019-02-22T14:38:51.127Z,12.40
2019-02-22T14:41:19.157Z,12.40
2019-02-22T14:43:46.680Z,12.40
2019-02-22T14:46:14.074Z,12.50
2019-02-22T14:48:41.518Z,12.40
2019-02-22T14:51:09.025Z,12.50
2019-02-22T14:53:36.438Z,12.50
2019-02-22T14:56:03.862Z,12.40
2019-02-22T14:58:34.138Z,12.40
2019-02-22T15:01:02.315Z,12.40
2019-02-22T15:03:30.384Z,12.40
2019-02-22T15:05:57.931Z,12.40
2019-02-22T15:08:25.382Z,12.40
2019-02-22T15:10:53.067Z,12.40
2019-02-22T15:13:20.540Z,12.40
2019-02-22T15:16:20.116Z,12.40
2019-02-22T15:18:48.102Z,12.40
2019-02-22T15:21:16.535Z,12.40
2019-02-22T15:23:47.117Z,12.40
2019-02-22T15:26:15.174Z,12.30
2019-02-22T15:28:42.646Z,12.30
2019-02-22T15:31:10.136Z,12.30
2019-02-22T15:33:37.774Z,12.30
2019-02-22T15:36:06.403Z,12.30
2019-02-22T15:38:34.784Z,12.20
2019-02-22T15:41:02.423Z,12.20
2019-02-22T15:43:30.098Z,12.20
2019-02-22T15:45:57.901Z,12.20
2019-02-22T15:48:26.124Z,12.20
2019-02-22T15:50:55.050Z,12.10
2019-02-22T15:53:22.816Z,12.20
2019-02-22T15:55:50.938Z,12.10
2019-02-22T15:58:18.785Z,12.20
2019-02-22T16:00:46.307Z,12.20
2019-02-22T16:03:14.374Z,12.20
2019-02-22T16:05:43.142Z,12.20
2019-02-22T16:08:11.767Z,12.10
2019-02-22T16:10:39.298Z,12.10
2019-02-22T16:13:07.205Z,12.10
2019-02-22T16:15:36.300Z,12.10
2019-02-22T16:18:04.163Z,12.00
2019-02-22T16:20:31.821Z,12.00
2019-02-22T16:22:59.468Z,12.00
2019-02-22T16:25:27.258Z,12.00
2019-02-22T16:27:54.944Z,12.00
2019-02-22T16:30:25.013Z,12.00
2019-02-22T16:32:52.374Z,12.00
2019-02-22T16:35:19.895Z,12.00
2019-02-22T16:37:47.551Z,11.90
2019-02-22T16:40:15.042Z,11.90
2019-02-22T16:42:42.531Z,11.90
2019-02-22T16:45:10.671Z,11.90
2019-02-22T16:47:40.254Z,11.90
2019-02-22T16:50:09.172Z,11.80
2019-02-22T16:52:36.642Z,11.80
2019-02-22T16:55:07.070Z,11.80
2019-02-22T16:57:34.383Z,11.80
2019-02-22T17:00:03.374Z,11.70
2019-02-22T17:02:32.881Z,11.70
2019-02-22T17:05:00.339Z,11.70
2019-02-22T17:07:27.748Z,11.60
2019-02-22T17:09:55.403Z,11.60
2019-02-22T17:12:24.309Z,11.60
2019-02-22T17:14:51.803Z,11.70
2019-02-22T17:17:19.553Z,11.70
2019-02-22T17:19:47.238Z,11.60
2019-02-22T17:22:14.742Z,11.60
2019-02-22T17:24:42.329Z,11.70
2019-02-22T17:27:09.821Z,11.70
2019-02-22T17:29:37.235Z,11.70
2019-02-22T17:32:04.810Z,11.60
2019-02-22T17:34:32.488Z,11.70
2019-02-22T17:36:59.978Z,11.70
2019-02-22T17:39:27.791Z,11.80
2019-02-22T17:41:55.530Z,11.80
2019-02-22T17:44:23.275Z,11.80
2019-02-22T17:46:57.579Z,11.80
2019-02-22T17:49:20.066Z,11.70
2019-02-22T17:51:47.526Z,11.60
2019-02-22T17:54:15.293Z,11.50
2019-02-22T17:56:42.647Z,11.40
2019-02-22T17:59:09.987Z,11.50
2019-02-22T18:01:37.575Z,11.60
2019-02-22T18:04:05.015Z,11.70
2019-02-22T18:06:33.111Z,11.70
2019-02-22T18:09:00.930Z,11.50
2019-02-22T18:11:28.398Z,11.50
2019-02-22T18:13:55.899Z,11.60
2019-02-22T18:16:23.423Z,11.50
2019-02-22T18:18:51.131Z,11.50
2019-02-22T18:21:18.671Z,11.50
2019-02-22T18:23:47.067Z,11.50
2019-02-22T18:26:14.940Z,11.50
2019-02-22T18:28:43.128Z,11.50
2019-02-22T18:31:10.529Z,11.40
2019-02-22T18:33:38.012Z,11.40
2019-02-22T18:36:06.832Z,11.30
2019-02-22T18:38:34.163Z,11.20
2019-02-22T18:41:01.621Z,11.20
2019-02-22T18:43:29.531Z,11.20
2019-02-22T18:45:57.273Z,11.10
2019-02-22T18:48:24.638Z,11.00
2019-02-22T18:50:53.660Z,11.00
2019-02-22T18:53:22.597Z,10.90
2019-02-22T18:55:50.591Z,10.80
2019-02-22T18:58:18.292Z,10.80
2019-02-22T19:00:45.792Z,10.90
2019-02-22T19:03:13.567Z,10.90
2019-02-22T19:05:41.168Z,10.70
2019-02-22T19:08:08.736Z,10.70
2019-02-22T19:10:36.801Z,10.70
2019-02-22T19:13:05.028Z,10.70
2019-02-22T19:15:32.425Z,10.60
2019-02-22T19:18:00.160Z,10.50
2019-02-22T19:20:27.940Z,10.50
2019-02-22T19:22:55.709Z,10.40
2019-02-22T19:25:23.730Z,10.40
2019-02-22T19:27:51.373Z,10.30
2019-02-22T19:30:18.930Z,10.10
2019-02-22T19:32:46.441Z,10.10
2019-02-22T19:35:14.029Z,10.00
2019-02-22T19:37:41.683Z,10.00
2019-02-22T19:40:11.772Z,10.00
2019-02-22T19:42:39.361Z,9.80
2019-02-22T19:45:08.182Z,9.90
2019-02-22T19:47:41.927Z,9.90
2019-02-22T19:50:06.477Z,9.80
2019-02-22T19:52:34.224Z,9.90
2019-02-22T19:55:01.752Z,9.80
2019-02-22T19:57:29.536Z,9.70
2019-02-22T19:59:56.912Z,9.70
2019-02-22T20:02:24.695Z,9.60
2019-02-22T20:04:53.431Z,9.60
2019-02-22T20:07:21.057Z,9.60
2019-02-22T20:09:48.411Z,9.50
2019-02-22T20:12:16.399Z,9.50
2019-02-22T20:14:43.738Z,9.40
2019-02-22T20:17:11.647Z,9.20
2019-02-22T20:19:39.470Z,9.10
2019-02-22T20:22:07.943Z,8.90
2019-02-22T20:24:35.934Z,9.00
2019-02-22T20:27:03.535Z,9.00
2019-02-22T20:29:31.471Z,9.00
2019-02-22T20:32:02.390Z,9.00
2019-02-22T20:34:30.390Z,9.00
2019-02-22T20:36:58.248Z,8.90
2019-02-22T20:39:25.716Z,8.70
2019-02-22T20:41:53.448Z,8.70
2019-02-22T20:44:20.814Z,8.30
2019-02-22T20:46:48.404Z,8.40
2019-02-22T20:49:15.762Z,8.50
2019-02-22T20:51:43.297Z,8.50
2019-02-22T20:54:10.876Z,8.50
2019-02-22T20:56:39.271Z,8.40
2019-02-22T20:59:06.651Z,8.40
2019-02-22T21:01:34.617Z,8.40
2019-02-22T21:04:02.145Z,8.30
2019-02-22T21:06:29.713Z,8.30
2019-02-22T21:08:57.946Z,8.30
2019-02-22T21:11:25.300Z,8.30
2019-02-22T21:13:53.202Z,8.30
2019-02-22T21:16:20.701Z,8.20
2019-02-22T21:18:48.319Z,8.20
2019-02-22T21:21:16.089Z,8.10
2019-02-22T21:23:43.597Z,8.00
2019-02-22T21:26:11.199Z,8.00
2019-02-22T21:28:39.750Z,7.90
2019-02-22T21:31:07.212Z,7.90
2019-02-22T21:33:34.972Z,7.90
2019-02-22T21:36:02.826Z,7.90
2019-02-22T21:38:31.718Z,7.80
2019-02-22T21:40:59.114Z,7.80
2019-02-22T21:43:26.516Z,7.80
2019-02-22T21:45:54.356Z,7.60
2019-02-22T21:48:27.472Z,7.70
2019-02-22T21:50:51.535Z,7.60
2019-02-22T21:53:19.437Z,7.60
2019-02-22T21:55:47.395Z,7.60
2019-02-22T21:58:15.902Z,7.50
2019-02-22T22:00:43.359Z,7.50
2019-02-22T22:03:11.315Z,7.40
2019-02-22T22:05:39.164Z,7.40
2019-02-22T22:08:06.996Z,7.30
2019-02-22T22:10:34.557Z,7.30
2019-02-22T22:13:03.294Z,7.20
2019-02-22T22:15:30.769Z,7.20
2019-02-22T22:17:58.313Z,7.10
2019-02-22T22:20:26.107Z,6.90
2019-02-22T22:22:53.952Z,7.00
2019-02-22T22:25:21.845Z,6.80
2019-02-22T22:27:49.370Z,6.80
2019-02-22T22:30:16.902Z,6.80
2019-02-22T22:32:44.431Z,6.80
2019-02-22T22:35:11.985Z,6.80
2019-02-22T22:37:39.521Z,6.80
2019-02-22T22:40:07.850Z,6.70
2019-02-22T22:42:35.325Z,6.80
2019-02-22T22:45:05.226Z,6.80
2019-02-22T22:47:32.848Z,6.80
2019-02-22T22:50:00.679Z,6.80
2019-02-22T22:52:28.497Z,6.90
2019-02-22T22:54:56.184Z,6.70
2019-02-22T22:57:23.535Z,6.50
2019-02-22T22:59:51.012Z,6.50
2019-02-22T23:02:18.797Z,6.50
2019-02-22T23:04:46.379Z,6.60
2019-02-22T23:07:14.926Z,6.60
2019-02-22T23:09:43.297Z,6.40
2019-02-22T23:12:11.193Z,6.30
2019-02-22T23:14:38.744Z,6.10
2019-02-22T23:17:06.592Z,6.30
2019-02-22T23:19:34.680Z,6.40
2019-02-22T23:22:03.656Z,6.30
2019-02-22T23:24:31.505Z,6.40
2019-02-22T23:26:59.279Z,6.50
2019-02-22T23:29:26.881Z,6.50
2019-02-22T23:31:54.466Z,6.40
2019-02-22T23:34:21.895Z,6.50
2019-02-22T23:36:49.898Z,6.40
2019-02-22T23:39:17.799Z,6.40
2019-02-22T23:41:45.565Z,6.50
2019-02-22T23:44:13.353Z,6.50
2019-02-22T23:46:41.170Z,6.40
2019-02-22T23:49:13.347Z,6.40
2019-02-22T23:51:40.522Z,6.30
2019-02-22T23:54:08.005Z,6.30
2019-02-22T23:56:35.508Z,6.30
2019-02-22T23:59:03.343Z,6.30
